sensor_id;sensor_type;location;lat;lon;timestamp;P1;durP1;ratioP1;P2;durP2;ratioP2
40154;SDS011;25875;48.202;16.334;2024-03-23T00:55:36;7.15;;;6.30;;
40154;SDS011;25875;48.202;16.334;2024-03-23T00:58:03;8.93;;;7.47;;
40154;SDS011;25875;48.202;16.334;2024-03-23T01:00:30;9.55;;;6.60;;
40154;SDS011;25875;48.202;16.334;2024-03-23T01:02:57;8.52;;;7.22;;
40154;SDS011;25875;48.202;16.334;2024-03-23T01:05:22;8.60;;;6.85;;
40154;SDS011;25875;48.202;16.334;2024-03-23T01:07:49;12.27;;;8.70;;
40154;SDS011;25875;48.202;16.334;2024-03-23T01:10:15;10.82;;;8.57;;
40154;SDS011;25875;48.202;16.334;2024-03-23T01:12:41;9.82;;;7.70;;
40154;SDS011;25875;48.202;16.334;2024-03-23T01:15:07;10.25;;;8.65;;
40154;SDS011;25875;48.202;16.334;2024-03-23T01:17:36;9.32;;;7.55;;
40154;SDS011;25875;48.202;16.334;2024-03-23T01:20:02;9.63;;;8.45;;
40154;SDS011;25875;48.202;16.334;2024-03-23T01:22:29;10.00;;;7.85;;
40154;SDS011;25875;48.202;16.334;2024-03-23T01:24:54;11.40;;;9.07;;
40154;SDS011;25875;48.202;16.334;2024-03-23T01:27:21;12.07;;;9.73;;
40154;SDS011;25875;48.202;16.334;2024-03-23T01:29:47;9.38;;;8.38;;
40154;SDS011;25875;48.202;16.334;2024-03-23T01:32:13;10.93;;;9.13;;
40154;SDS011;25875;48.202;16.334;2024-03-23T01:34:40;10.02;;;8.13;;
40154;SDS011;25875;48.202;16.334;2024-03-23T01:37:08;11.23;;;8.48;;
40154;SDS011;25875;48.202;16.334;2024-03-23T01:39:33;9.57;;;7.82;;
40154;SDS011;25875;48.202;16.334;2024-03-23T01:42:00;10.05;;;8.75;;
40154;SDS011;25875;48.202;16.334;2024-03-23T01:44:26;7.85;;;6.93;;
40154;SDS011;25875;48.202;16.334;2024-03-23T01:46:52;8.27;;;7.15;;
40154;SDS011;25875;48.202;16.334;2024-03-23T01:49:18;8.13;;;6.68;;
40154;SDS011;25875;48.202;16.334;2024-03-23T01:51:46;9.40;;;6.55;;
40154;SDS011;25875;48.202;16.334;2024-03-23T01:54:12;9.32;;;5.88;;
40154;SDS011;25875;48.202;16.334;2024-03-23T01:56:38;7.47;;;6.63;;
40154;SDS011;25875;48.202;16.334;2024-03-23T01:59:04;8.45;;;6.80;;
40154;SDS011;25875;48.202;16.334;2024-03-23T02:01:32;8.63;;;7.07;;
40154;SDS011;25875;48.202;16.334;2024-03-23T02:03:58;9.15;;;7.15;;
40154;SDS011;25875;48.202;16.334;2024-03-23T02:06:24;8.55;;;7.20;;
40154;SDS011;25875;48.202;16.334;2024-03-23T02:08:51;8.30;;;7.50;;
40154;SDS011;25875;48.202;16.334;2024-03-23T02:11:19;10.32;;;7.22;;
40154;SDS011;25875;48.202;16.334;2024-03-23T02:13:44;7.32;;;6.60;;
40154;SDS011;25875;48.202;16.334;2024-03-23T02:16:11;9.07;;;7.80;;
40154;SDS011;25875;48.202;16.334;2024-03-23T02:18:38;10.02;;;8.07;;
40154;SDS011;25875;48.202;16.334;2024-03-23T02:21:05;9.98;;;8.77;;
40154;SDS011;25875;48.202;16.334;2024-03-23T02:23:32;10.15;;;9.15;;
40154;SDS011;25875;48.202;16.334;2024-03-23T02:25:58;11.65;;;9.25;;
40154;SDS011;25875;48.202;16.334;2024-03-23T02:28:24;10.43;;;8.98;;
40154;SDS011;25875;48.202;16.334;2024-03-23T02:30:51;9.27;;;7.95;;
40154;SDS011;25875;48.202;16.334;2024-03-23T02:33:17;10.40;;;8.05;;
40154;SDS011;25875;48.202;16.334;2024-03-23T02:35:44;9.65;;;8.40;;
40154;SDS011;25875;48.202;16.334;2024-03-23T02:38:10;9.63;;;8.23;;
40154;SDS011;25875;48.202;16.334;2024-03-23T02:40:38;9.75;;;8.20;;
40154;SDS011;25875;48.202;16.334;2024-03-23T02:43:04;8.77;;;7.88;;
40154;SDS011;25875;48.202;16.334;2024-03-23T02:45:31;9.18;;;7.47;;
40154;SDS011;25875;48.202;16.334;2024-03-23T02:47:57;11.98;;;7.70;;
40154;SDS011;25875;48.202;16.334;2024-03-23T02:50:23;8.23;;;7.43;;
40154;SDS011;25875;48.202;16.334;2024-03-23T02:52:49;9.15;;;7.50;;
40154;SDS011;25875;48.202;16.334;2024-03-23T02:55:16;9.50;;;7.53;;
40154;SDS011;25875;48.202;16.334;2024-03-23T02:57:43;8.80;;;7.53;;
40154;SDS011;25875;48.202;16.334;2024-03-23T03:00:10;9.90;;;8.57;;
40154;SDS011;25875;48.202;16.334;2024-03-23T03:02:36;13.95;;;11.20;;
40154;SDS011;25875;48.202;16.334;2024-03-23T03:05:03;13.23;;;11.00;;
40154;SDS011;25875;48.202;16.334;2024-03-23T03:07:30;11.90;;;9.80;;
40154;SDS011;25875;48.202;16.334;2024-03-23T03:09:57;10.30;;;8.77;;
40154;SDS011;25875;48.202;16.334;2024-03-23T03:12:22;11.10;;;8.80;;
40154;SDS011;25875;48.202;16.334;2024-03-23T03:14:50;11.70;;;9.95;;
40154;SDS011;25875;48.202;16.334;2024-03-23T03:17:16;10.98;;;9.65;;
40154;SDS011;25875;48.202;16.334;2024-03-23T03:19:44;10.80;;;9.70;;
40154;SDS011;25875;48.202;16.334;2024-03-23T03:22:10;12.18;;;9.48;;
40154;SDS011;25875;48.202;16.334;2024-03-23T03:24:37;10.55;;;8.68;;
40154;SDS011;25875;48.202;16.334;2024-03-23T03:27:02;10.35;;;8.88;;
40154;SDS011;25875;48.202;16.334;2024-03-23T03:29:29;9.73;;;8.68;;
40154;SDS011;25875;48.202;16.334;2024-03-23T03:32:02;9.02;;;7.55;;
40154;SDS011;25875;48.202;16.334;2024-03-23T03:34:28;8.50;;;7.35;;
40154;SDS011;25875;48.202;16.334;2024-03-23T03:36:54;7.55;;;6.65;;
40154;SDS011;25875;48.202;16.334;2024-03-23T03:39:21;8.20;;;7.18;;
40154;SDS011;25875;48.202;16.334;2024-03-23T03:41:47;8.23;;;6.25;;
40154;SDS011;25875;48.202;16.334;2024-03-23T03:44:14;7.85;;;5.75;;
40154;SDS011;25875;48.202;16.334;2024-03-23T03:46:40;6.88;;;5.95;;
40154;SDS011;25875;48.202;16.334;2024-03-23T03:49:08;7.35;;;6.55;;
40154;SDS011;25875;48.202;16.334;2024-03-23T03:51:34;6.82;;;5.97;;
40154;SDS011;25875;48.202;16.334;2024-03-23T03:54:00;6.85;;;6.15;;
40154;SDS011;25875;48.202;16.334;2024-03-23T03:56:26;10.98;;;7.20;;
40154;SDS011;25875;48.202;16.334;2024-03-23T03:58:52;6.82;;;6.05;;
40154;SDS011;25875;48.202;16.334;2024-03-23T04:01:18;9.82;;;7.22;;
40154;SDS011;25875;48.202;16.334;2024-03-23T04:03:45;9.77;;;6.50;;
40154;SDS011;25875;48.202;16.334;2024-03-23T04:06:13;7.82;;;6.13;;
40154;SDS011;25875;48.202;16.334;2024-03-23T04:08:45;9.82;;;7.18;;
40154;SDS011;25875;48.202;16.334;2024-03-23T04:11:10;15.50;;;7.18;;
40154;SDS011;25875;48.202;16.334;2024-03-23T04:13:37;7.03;;;6.32;;
40154;SDS011;25875;48.202;16.334;2024-03-23T04:16:03;11.13;;;6.80;;
40154;SDS011;25875;48.202;16.334;2024-03-23T04:18:30;7.35;;;6.63;;
40154;SDS011;25875;48.202;16.334;2024-03-23T04:20:56;6.85;;;6.15;;
40154;SDS011;25875;48.202;16.334;2024-03-23T04:23:24;7.90;;;6.13;;
40154;SDS011;25875;48.202;16.334;2024-03-23T04:25:50;7.70;;;6.07;;
40154;SDS011;25875;48.202;16.334;2024-03-23T04:28:17;8.60;;;6.20;;
40154;SDS011;25875;48.202;16.334;2024-03-23T04:30:43;9.48;;;6.43;;
40154;SDS011;25875;48.202;16.334;2024-03-23T04:33:09;7.10;;;5.72;;
40154;SDS011;25875;48.202;16.334;2024-03-23T04:35:35;7.65;;;6.20;;
40154;SDS011;25875;48.202;16.334;2024-03-23T04:38:02;6.97;;;6.15;;
40154;SDS011;25875;48.202;16.334;2024-03-23T04:40:30;9.65;;;6.07;;
40154;SDS011;25875;48.202;16.334;2024-03-23T04:42:56;7.75;;;5.95;;
40154;SDS011;25875;48.202;16.334;2024-03-23T04:45:23;12.13;;;6.53;;
40154;SDS011;25875;48.202;16.334;2024-03-23T04:47:50;6.90;;;6.20;;
40154;SDS011;25875;48.202;16.334;2024-03-23T04:50:16;9.05;;;6.13;;
40154;SDS011;25875;48.202;16.334;2024-03-23T04:52:43;7.55;;;6.55;;
40154;SDS011;25875;48.202;16.334;2024-03-23T04:55:10;8.23;;;6.95;;
40154;SDS011;25875;48.202;16.334;2024-03-23T04:57:38;7.30;;;6.60;;
40154;SDS011;25875;48.202;16.334;2024-03-23T05:00:05;7.57;;;5.68;;
40154;SDS011;25875;48.202;16.334;2024-03-23T05:02:41;6.65;;;5.88;;
40154;SDS011;25875;48.202;16.334;2024-03-23T05:05:09;6.97;;;5.43;;
40154;SDS011;25875;48.202;16.334;2024-03-23T05:07:34;9.10;;;6.22;;
40154;SDS011;25875;48.202;16.334;2024-03-23T05:10:01;7.07;;;5.70;;
40154;SDS011;25875;48.202;16.334;2024-03-23T05:12:26;12.65;;;6.13;;
40154;SDS011;25875;48.202;16.334;2024-03-23T05:14:54;6.47;;;5.72;;
40154;SDS011;25875;48.202;16.334;2024-03-23T05:17:21;6.40;;;5.60;;
40154;SDS011;25875;48.202;16.334;2024-03-23T05:19:47;9.52;;;6.85;;
40154;SDS011;25875;48.202;16.334;2024-03-23T05:22:14;9.38;;;5.90;;
40154;SDS011;25875;48.202;16.334;2024-03-23T05:24:40;8.38;;;5.75;;
40154;SDS011;25875;48.202;16.334;2024-03-23T05:27:06;9.10;;;5.30;;
40154;SDS011;25875;48.202;16.334;2024-03-23T05:29:32;6.78;;;5.68;;
40154;SDS011;25875;48.202;16.334;2024-03-23T05:31:59;9.60;;;7.50;;
40154;SDS011;25875;48.202;16.334;2024-03-23T05:34:26;7.35;;;6.05;;
40154;SDS011;25875;48.202;16.334;2024-03-23T05:36:53;8.23;;;6.65;;
40154;SDS011;25875;48.202;16.334;2024-03-23T05:39:20;7.57;;;5.93;;
40154;SDS011;25875;48.202;16.334;2024-03-23T05:41:47;10.68;;;6.38;;
40154;SDS011;25875;48.202;16.334;2024-03-23T05:44:14;8.25;;;6.57;;
40154;SDS011;25875;48.202;16.334;2024-03-23T05:46:40;7.75;;;6.47;;
40154;SDS011;25875;48.202;16.334;2024-03-23T05:49:08;9.20;;;6.43;;
40154;SDS011;25875;48.202;16.334;2024-03-23T05:51:34;7.70;;;5.93;;
40154;SDS011;25875;48.202;16.334;2024-03-23T05:54:01;9.80;;;6.60;;
40154;SDS011;25875;48.202;16.334;2024-03-23T05:56:26;11.77;;;5.75;;
40154;SDS011;25875;48.202;16.334;2024-03-23T05:58:53;7.85;;;6.45;;
40154;SDS011;25875;48.202;16.334;2024-03-23T06:01:18;7.63;;;5.88;;
40154;SDS011;25875;48.202;16.334;2024-03-23T06:03:45;9.82;;;6.85;;
40154;SDS011;25875;48.202;16.334;2024-03-23T06:06:12;6.55;;;5.35;;
40154;SDS011;25875;48.202;16.334;2024-03-23T06:08:39;5.95;;;5.35;;
40154;SDS011;25875;48.202;16.334;2024-03-23T06:11:04;6.30;;;5.18;;
40154;SDS011;25875;48.202;16.334;2024-03-23T06:13:32;9.50;;;6.07;;
40154;SDS011;25875;48.202;16.334;2024-03-23T06:15:59;6.15;;;5.28;;
40154;SDS011;25875;48.202;16.334;2024-03-23T06:18:24;7.90;;;6.00;;
40154;SDS011;25875;48.202;16.334;2024-03-23T06:20:51;7.10;;;5.32;;
40154;SDS011;25875;48.202;16.334;2024-03-23T06:23:18;7.75;;;5.53;;
40154;SDS011;25875;48.202;16.334;2024-03-23T06:25:45;6.72;;;5.50;;
40154;SDS011;25875;48.202;16.334;2024-03-23T06:28:11;7.65;;;5.75;;
40154;SDS011;25875;48.202;16.334;2024-03-23T06:30:37;7.88;;;5.90;;
40154;SDS011;25875;48.202;16.334;2024-03-23T06:33:03;6.47;;;5.30;;
40154;SDS011;25875;48.202;16.334;2024-03-23T06:35:30;6.15;;;5.55;;
40154;SDS011;25875;48.202;16.334;2024-03-23T06:37:56;8.75;;;5.40;;
40154;SDS011;25875;48.202;16.334;2024-03-23T06:40:24;7.28;;;6.13;;
40154;SDS011;25875;48.202;16.334;2024-03-23T06:42:50;6.05;;;5.45;;
40154;SDS011;25875;48.202;16.334;2024-03-23T06:45:16;6.28;;;5.63;;
40154;SDS011;25875;48.202;16.334;2024-03-23T06:47:48;9.68;;;6.20;;
40154;SDS011;25875;48.202;16.334;2024-03-23T06:50:14;9.23;;;6.40;;
40154;SDS011;25875;48.202;16.334;2024-03-23T06:52:40;6.63;;;5.90;;
40154;SDS011;25875;48.202;16.334;2024-03-23T06:55:07;7.70;;;6.03;;
40154;SDS011;25875;48.202;16.334;2024-03-23T06:57:35;7.72;;;6.35;;
40154;SDS011;25875;48.202;16.334;2024-03-23T07:00:01;8.02;;;6.57;;
40154;SDS011;25875;48.202;16.334;2024-03-23T07:02:28;8.40;;;6.47;;
40154;SDS011;25875;48.202;16.334;2024-03-23T07:04:54;7.90;;;6.70;;
40154;SDS011;25875;48.202;16.334;2024-03-23T07:07:20;8.13;;;6.82;;
40154;SDS011;25875;48.202;16.334;2024-03-23T07:09:47;15.25;;;6.90;;
40154;SDS011;25875;48.202;16.334;2024-03-23T07:12:13;11.38;;;6.43;;
40154;SDS011;25875;48.202;16.334;2024-03-23T07:14:41;7.03;;;5.95;;
40154;SDS011;25875;48.202;16.334;2024-03-23T07:17:07;7.75;;;6.95;;
40154;SDS011;25875;48.202;16.334;2024-03-23T07:19:33;9.10;;;6.00;;
40154;SDS011;25875;48.202;16.334;2024-03-23T07:21:59;7.25;;;6.30;;
40154;SDS011;25875;48.202;16.334;2024-03-23T07:24:26;9.80;;;6.80;;
40154;SDS011;25875;48.202;16.334;2024-03-23T07:26:51;8.93;;;7.00;;
40154;SDS011;25875;48.202;16.334;2024-03-23T07:29:19;10.40;;;7.47;;
40154;SDS011;25875;48.202;16.334;2024-03-23T07:31:46;8.50;;;7.45;;
40154;SDS011;25875;48.202;16.334;2024-03-23T07:34:13;8.98;;;7.93;;
40154;SDS011;25875;48.202;16.334;2024-03-23T07:36:38;8.10;;;7.05;;
40154;SDS011;25875;48.202;16.334;2024-03-23T07:39:05;8.13;;;6.47;;
40154;SDS011;25875;48.202;16.334;2024-03-23T07:41:33;10.15;;;6.45;;
40154;SDS011;25875;48.202;16.334;2024-03-23T07:44:00;8.57;;;6.90;;
40154;SDS011;25875;48.202;16.334;2024-03-23T07:46:26;8.52;;;6.95;;
40154;SDS011;25875;48.202;16.334;2024-03-23T07:48:54;7.57;;;6.47;;
40154;SDS011;25875;48.202;16.334;2024-03-23T07:51:20;11.10;;;7.35;;
40154;SDS011;25875;48.202;16.334;2024-03-23T07:53:47;11.73;;;7.72;;
40154;SDS011;25875;48.202;16.334;2024-03-23T07:56:13;7.57;;;6.78;;
40154;SDS011;25875;48.202;16.334;2024-03-23T07:58:43;7.95;;;6.90;;
40154;SDS011;25875;48.202;16.334;2024-03-23T08:01:09;9.25;;;7.43;;
40154;SDS011;25875;48.202;16.334;2024-03-23T08:03:38;13.02;;;9.18;;
40154;SDS011;25875;48.202;16.334;2024-03-23T08:06:10;10.93;;;7.88;;
40154;SDS011;25875;48.202;16.334;2024-03-23T08:08:38;9.60;;;8.35;;
40154;SDS011;25875;48.202;16.334;2024-03-23T08:11:05;9.68;;;8.05;;
40154;SDS011;25875;48.202;16.334;2024-03-23T08:13:33;12.63;;;9.75;;
40154;SDS011;25875;48.202;16.334;2024-03-23T08:15:59;13.45;;;10.50;;
40154;SDS011;25875;48.202;16.334;2024-03-23T08:18:27;11.00;;;9.90;;
40154;SDS011;25875;48.202;16.334;2024-03-23T08:20:56;10.77;;;9.23;;
40154;SDS011;25875;48.202;16.334;2024-03-23T08:23:25;9.00;;;8.10;;
40154;SDS011;25875;48.202;16.334;2024-03-23T08:25:51;11.30;;;9.25;;
40154;SDS011;25875;48.202;16.334;2024-03-23T08:28:17;10.75;;;9.43;;
40154;SDS011;25875;48.202;16.334;2024-03-23T08:30:43;10.95;;;9.13;;
40154;SDS011;25875;48.202;16.334;2024-03-23T08:33:10;9.80;;;8.18;;
40154;SDS011;25875;48.202;16.334;2024-03-23T08:35:35;10.45;;;9.00;;
40154;SDS011;25875;48.202;16.334;2024-03-23T08:38:02;8.70;;;7.72;;
40154;SDS011;25875;48.202;16.334;2024-03-23T08:40:30;7.55;;;6.70;;
40154;SDS011;25875;48.202;16.334;2024-03-23T08:42:57;8.75;;;7.40;;
40154;SDS011;25875;48.202;16.334;2024-03-23T08:45:24;8.35;;;6.50;;
40154;SDS011;25875;48.202;16.334;2024-03-23T08:47:50;8.00;;;7.15;;
40154;SDS011;25875;48.202;16.334;2024-03-23T08:50:16;9.95;;;8.18;;
40154;SDS011;25875;48.202;16.334;2024-03-23T08:52:43;9.05;;;8.07;;
40154;SDS011;25875;48.202;16.334;2024-03-23T08:55:09;8.50;;;7.70;;
40154;SDS011;25875;48.202;16.334;2024-03-23T08:57:37;8.65;;;7.20;;
40154;SDS011;25875;48.202;16.334;2024-03-23T09:00:03;8.77;;;6.50;;
40154;SDS011;25875;48.202;16.334;2024-03-23T09:02:31;7.65;;;5.72;;
40154;SDS011;25875;48.202;16.334;2024-03-23T09:04:56;7.85;;;5.20;;
40154;SDS011;25875;48.202;16.334;2024-03-23T09:07:29;5.85;;;4.63;;
40154;SDS011;25875;48.202;16.334;2024-03-23T09:09:55;5.78;;;4.80;;
40154;SDS011;25875;48.202;16.334;2024-03-23T09:12:21;7.18;;;4.78;;
40154;SDS011;25875;48.202;16.334;2024-03-23T09:14:48;7.18;;;4.85;;
40154;SDS011;25875;48.202;16.334;2024-03-23T09:17:15;11.75;;;5.25;;
40154;SDS011;25875;48.202;16.334;2024-03-23T09:19:41;8.55;;;5.03;;
40154;SDS011;25875;48.202;16.334;2024-03-23T09:22:08;6.47;;;3.92;;
40154;SDS011;25875;48.202;16.334;2024-03-23T09:24:33;6.65;;;4.57;;
40154;SDS011;25875;48.202;16.334;2024-03-23T09:27:00;7.05;;;4.68;;
40154;SDS011;25875;48.202;16.334;2024-03-23T09:29:26;5.63;;;4.55;;
40154;SDS011;25875;48.202;16.334;2024-03-23T09:31:54;4.53;;;3.85;;
40154;SDS011;25875;48.202;16.334;2024-03-23T09:34:19;5.45;;;4.22;;
40154;SDS011;25875;48.202;16.334;2024-03-23T09:36:46;6.28;;;4.05;;
40154;SDS011;25875;48.202;16.334;2024-03-23T09:39:12;6.47;;;5.38;;
40154;SDS011;25875;48.202;16.334;2024-03-23T09:41:39;4.15;;;3.42;;
40154;SDS011;25875;48.202;16.334;2024-03-23T09:44:06;4.05;;;2.72;;
40154;SDS011;25875;48.202;16.334;2024-03-23T09:46:33;6.30;;;3.55;;
40154;SDS011;25875;48.202;16.334;2024-03-23T09:49:01;5.47;;;3.72;;
40154;SDS011;25875;48.202;16.334;2024-03-23T09:51:29;4.65;;;2.72;;
40154;SDS011;25875;48.202;16.334;2024-03-23T09:53:55;5.70;;;3.30;;
40154;SDS011;25875;48.202;16.334;2024-03-23T09:56:22;6.15;;;3.22;;
40154;SDS011;25875;48.202;16.334;2024-03-23T09:58:48;4.40;;;2.97;;
40154;SDS011;25875;48.202;16.334;2024-03-23T10:01:15;4.20;;;2.92;;
40154;SDS011;25875;48.202;16.334;2024-03-23T10:03:44;3.53;;;2.65;;
40154;SDS011;25875;48.202;16.334;2024-03-23T10:06:13;4.82;;;2.83;;
40154;SDS011;25875;48.202;16.334;2024-03-23T10:08:38;4.88;;;2.92;;
40154;SDS011;25875;48.202;16.334;2024-03-23T10:11:15;3.90;;;2.67;;
40154;SDS011;25875;48.202;16.334;2024-03-23T10:13:41;9.10;;;3.78;;
40154;SDS011;25875;48.202;16.334;2024-03-23T10:16:09;4.95;;;3.28;;
40154;SDS011;25875;48.202;16.334;2024-03-23T10:18:37;4.72;;;3.03;;
40154;SDS011;25875;48.202;16.334;2024-03-23T10:21:07;4.75;;;3.20;;
40154;SDS011;25875;48.202;16.334;2024-03-23T10:23:37;5.03;;;3.20;;
40154;SDS011;25875;48.202;16.334;2024-03-23T10:26:17;4.57;;;2.67;;
40154;SDS011;25875;48.202;16.334;2024-03-23T10:28:54;3.97;;;2.42;;
40154;SDS011;25875;48.202;16.334;2024-03-23T10:31:24;4.53;;;2.55;;
40154;SDS011;25875;48.202;16.334;2024-03-23T10:33:50;4.75;;;2.55;;
40154;SDS011;25875;48.202;16.334;2024-03-23T10:36:19;4.07;;;2.20;;
40154;SDS011;25875;48.202;16.334;2024-03-23T10:38:47;3.92;;;2.47;;
40154;SDS011;25875;48.202;16.334;2024-03-23T10:41:15;3.53;;;2.28;;
40154;SDS011;25875;48.202;16.334;2024-03-23T10:43:41;3.22;;;2.22;;
40154;SDS011;25875;48.202;16.334;2024-03-23T10:46:11;4.85;;;2.60;;
40154;SDS011;25875;48.202;16.334;2024-03-23T10:48:36;4.40;;;2.97;;
40154;SDS011;25875;48.202;16.334;2024-03-23T10:51:04;6.68;;;2.85;;
40154;SDS011;25875;48.202;16.334;2024-03-23T10:53:32;4.88;;;2.70;;
40154;SDS011;25875;48.202;16.334;2024-03-23T10:56:01;3.58;;;2.17;;
40154;SDS011;25875;48.202;16.334;2024-03-23T10:58:27;6.07;;;2.38;;
40154;SDS011;25875;48.202;16.334;2024-03-23T11:00:57;3.58;;;1.88;;
40154;SDS011;25875;48.202;16.334;2024-03-23T11:03:29;5.50;;;2.10;;
40154;SDS011;25875;48.202;16.334;2024-03-23T11:05:57;2.90;;;1.92;;
40154;SDS011;25875;48.202;16.334;2024-03-23T11:08:32;3.35;;;2.10;;
40154;SDS011;25875;48.202;16.334;2024-03-23T11:11:20;3.28;;;1.80;;
40154;SDS011;25875;48.202;16.334;2024-03-23T11:13:47;3.15;;;1.80;;
40154;SDS011;25875;48.202;16.334;2024-03-23T11:16:16;2.70;;;1.77;;
40154;SDS011;25875;48.202;16.334;2024-03-23T11:18:43;4.68;;;1.73;;
40154;SDS011;25875;48.202;16.334;2024-03-23T11:21:10;3.78;;;1.85;;
40154;SDS011;25875;48.202;16.334;2024-03-23T11:24:03;3.53;;;1.58;;
40154;SDS011;25875;48.202;16.334;2024-03-23T11:26:41;5.88;;;2.05;;
40154;SDS011;25875;48.202;16.334;2024-03-23T11:29:09;3.67;;;1.80;;
40154;SDS011;25875;48.202;16.334;2024-03-23T11:31:37;2.78;;;1.77;;
40154;SDS011;25875;48.202;16.334;2024-03-23T11:34:04;4.30;;;2.05;;
40154;SDS011;25875;48.202;16.334;2024-03-23T11:36:32;3.95;;;1.95;;
40154;SDS011;25875;48.202;16.334;2024-03-23T11:38:57;3.10;;;1.90;;
40154;SDS011;25875;48.202;16.334;2024-03-23T11:41:24;3.03;;;1.77;;
40154;SDS011;25875;48.202;16.334;2024-03-23T11:43:52;5.60;;;2.20;;
40154;SDS011;25875;48.202;16.334;2024-03-23T11:46:22;3.88;;;1.92;;
40154;SDS011;25875;48.202;16.334;2024-03-23T11:48:49;3.53;;;2.08;;
40154;SDS011;25875;48.202;16.334;2024-03-23T11:51:16;3.72;;;1.90;;
40154;SDS011;25875;48.202;16.334;2024-03-23T11:53:42;5.32;;;2.33;;
40154;SDS011;25875;48.202;16.334;2024-03-23T11:56:09;3.78;;;2.38;;
40154;SDS011;25875;48.202;16.334;2024-03-23T11:58:35;3.83;;;2.22;;
40154;SDS011;25875;48.202;16.334;2024-03-23T12:01:03;2.90;;;1.90;;
40154;SDS011;25875;48.202;16.334;2024-03-23T12:03:30;3.47;;;2.10;;
40154;SDS011;25875;48.202;16.334;2024-03-23T12:05:59;3.83;;;2.22;;
40154;SDS011;25875;48.202;16.334;2024-03-23T12:08:29;3.40;;;2.40;;
40154;SDS011;25875;48.202;16.334;2024-03-23T12:11:04;6.53;;;2.70;;
40154;SDS011;25875;48.202;16.334;2024-03-23T12:13:31;5.00;;;2.35;;
40154;SDS011;25875;48.202;16.334;2024-03-23T12:16:10;4.82;;;2.30;;
40154;SDS011;25875;48.202;16.334;2024-03-23T12:18:37;3.65;;;1.98;;
40154;SDS011;25875;48.202;16.334;2024-03-23T12:21:04;3.67;;;2.15;;
40154;SDS011;25875;48.202;16.334;2024-03-23T12:23:30;3.67;;;2.20;;
40154;SDS011;25875;48.202;16.334;2024-03-23T12:25:57;4.53;;;2.17;;
40154;SDS011;25875;48.202;16.334;2024-03-23T12:28:23;2.67;;;2.05;;
40154;SDS011;25875;48.202;16.334;2024-03-23T12:30:50;3.70;;;2.25;;
40154;SDS011;25875;48.202;16.334;2024-03-23T12:33:18;3.95;;;2.25;;
40154;SDS011;25875;48.202;16.334;2024-03-23T12:35:45;3.17;;;2.25;;
40154;SDS011;25875;48.202;16.334;2024-03-23T12:38:10;3.75;;;2.58;;
40154;SDS011;25875;48.202;16.334;2024-03-23T12:40:37;4.15;;;2.35;;
40154;SDS011;25875;48.202;16.334;2024-03-23T12:43:03;5.35;;;2.25;;
40154;SDS011;25875;48.202;16.334;2024-03-23T12:45:30;3.03;;;2.00;;
40154;SDS011;25875;48.202;16.334;2024-03-23T12:47:55;5.72;;;2.42;;
40154;SDS011;25875;48.202;16.334;2024-03-23T12:50:23;4.15;;;2.53;;
40154;SDS011;25875;48.202;16.334;2024-03-23T12:52:49;3.10;;;2.30;;
40154;SDS011;25875;48.202;16.334;2024-03-23T12:55:16;7.50;;;2.58;;
40154;SDS011;25875;48.202;16.334;2024-03-23T12:57:42;7.25;;;2.25;;
40154;SDS011;25875;48.202;16.334;2024-03-23T13:00:09;5.40;;;2.95;;
40154;SDS011;25875;48.202;16.334;2024-03-23T13:02:37;10.38;;;2.85;;
40154;SDS011;25875;48.202;16.334;2024-03-23T13:05:05;3.72;;;2.45;;
40154;SDS011;25875;48.202;16.334;2024-03-23T13:07:34;5.65;;;1.92;;
40154;SDS011;25875;48.202;16.334;2024-03-23T13:10:02;4.70;;;2.15;;
40154;SDS011;25875;48.202;16.334;2024-03-23T13:12:28;3.75;;;2.10;;
40154;SDS011;25875;48.202;16.334;2024-03-23T13:14:56;4.70;;;2.17;;
40154;SDS011;25875;48.202;16.334;2024-03-23T13:17:21;4.85;;;2.15;;
40154;SDS011;25875;48.202;16.334;2024-03-23T13:19:48;4.47;;;1.80;;
40154;SDS011;25875;48.202;16.334;2024-03-23T13:22:13;2.80;;;2.00;;
40154;SDS011;25875;48.202;16.334;2024-03-23T13:24:41;7.05;;;1.80;;
40154;SDS011;25875;48.202;16.334;2024-03-23T13:27:07;2.38;;;1.60;;
40154;SDS011;25875;48.202;16.334;2024-03-23T13:29:36;3.38;;;1.67;;
40154;SDS011;25875;48.202;16.334;2024-03-23T13:32:03;2.90;;;1.70;;
40154;SDS011;25875;48.202;16.334;2024-03-23T13:34:30;3.28;;;1.73;;
40154;SDS011;25875;48.202;16.334;2024-03-23T13:36:55;2.33;;;1.65;;
40154;SDS011;25875;48.202;16.334;2024-03-23T13:39:24;2.58;;;1.70;;
40154;SDS011;25875;48.202;16.334;2024-03-23T13:41:51;2.65;;;1.90;;
40154;SDS011;25875;48.202;16.334;2024-03-23T13:44:19;2.70;;;1.77;;
40154;SDS011;25875;48.202;16.334;2024-03-23T13:46:45;2.92;;;1.80;;
40154;SDS011;25875;48.202;16.334;2024-03-23T13:49:18;3.80;;;1.73;;
40154;SDS011;25875;48.202;16.334;2024-03-23T13:51:50;2.75;;;1.80;;
40154;SDS011;25875;48.202;16.334;2024-03-23T13:54:16;3.10;;;2.00;;
40154;SDS011;25875;48.202;16.334;2024-03-23T13:56:42;2.95;;;1.95;;
40154;SDS011;25875;48.202;16.334;2024-03-23T13:59:10;4.20;;;2.40;;
40154;SDS011;25875;48.202;16.334;2024-03-23T14:01:37;2.67;;;1.77;;
40154;SDS011;25875;48.202;16.334;2024-03-23T14:04:03;3.08;;;2.08;;
40154;SDS011;25875;48.202;16.334;2024-03-23T14:06:29;3.65;;;2.00;;
40154;SDS011;25875;48.202;16.334;2024-03-23T14:08:56;3.20;;;1.88;;
40154;SDS011;25875;48.202;16.334;2024-03-23T14:11:21;4.70;;;3.45;;
40154;SDS011;25875;48.202;16.334;2024-03-23T14:13:48;3.05;;;2.05;;
40154;SDS011;25875;48.202;16.334;2024-03-23T14:16:15;3.30;;;2.40;;
40154;SDS011;25875;48.202;16.334;2024-03-23T14:18:41;3.45;;;1.90;;
40154;SDS011;25875;48.202;16.334;2024-03-23T14:21:07;2.97;;;2.05;;
40154;SDS011;25875;48.202;16.334;2024-03-23T14:23:35;3.33;;;2.40;;
40154;SDS011;25875;48.202;16.334;2024-03-23T14:26:01;2.90;;;2.33;;
40154;SDS011;25875;48.202;16.334;2024-03-23T14:28:28;4.07;;;2.20;;
40154;SDS011;25875;48.202;16.334;2024-03-23T14:30:55;3.10;;;2.38;;
40154;SDS011;25875;48.202;16.334;2024-03-23T14:33:23;3.20;;;2.45;;
40154;SDS011;25875;48.202;16.334;2024-03-23T14:35:51;3.35;;;2.28;;
40154;SDS011;25875;48.202;16.334;2024-03-23T14:38:18;4.22;;;2.70;;
40154;SDS011;25875;48.202;16.334;2024-03-23T14:40:44;4.13;;;2.88;;
40154;SDS011;25875;48.202;16.334;2024-03-23T14:43:11;4.50;;;3.45;;
40154;SDS011;25875;48.202;16.334;2024-03-23T14:45:36;3.60;;;2.92;;
40154;SDS011;25875;48.202;16.334;2024-03-23T14:48:03;4.95;;;3.75;;
40154;SDS011;25875;48.202;16.334;2024-03-23T14:50:31;4.93;;;4.38;;
40154;SDS011;25875;48.202;16.334;2024-03-23T14:52:59;7.28;;;4.05;;
40154;SDS011;25875;48.202;16.334;2024-03-23T14:55:25;6.10;;;3.97;;
40154;SDS011;25875;48.202;16.334;2024-03-23T14:57:52;6.35;;;4.22;;
40154;SDS011;25875;48.202;16.334;2024-03-23T15:00:18;4.28;;;2.85;;
40154;SDS011;25875;48.202;16.334;2024-03-23T15:02:44;4.75;;;4.25;;
40154;SDS011;25875;48.202;16.334;2024-03-23T15:05:11;6.05;;;3.65;;
40154;SDS011;25875;48.202;16.334;2024-03-23T15:07:39;3.92;;;3.17;;
40154;SDS011;25875;48.202;16.334;2024-03-23T15:10:07;3.50;;;2.58;;
40154;SDS011;25875;48.202;16.334;2024-03-23T15:12:33;3.10;;;2.38;;
40154;SDS011;25875;48.202;16.334;2024-03-23T15:14:59;5.40;;;3.67;;
40154;SDS011;25875;48.202;16.334;2024-03-23T15:17:25;3.47;;;2.92;;
40154;SDS011;25875;48.202;16.334;2024-03-23T15:19:52;3.13;;;2.50;;
40154;SDS011;25875;48.202;16.334;2024-03-23T15:22:18;3.42;;;2.50;;
40154;SDS011;25875;48.202;16.334;2024-03-23T15:24:46;4.82;;;2.75;;
40154;SDS011;25875;48.202;16.334;2024-03-23T15:27:12;3.80;;;3.00;;